createdAt,value
2022-12-23T00:00:43.425Z,10.13
2022-12-23T00:03:10.360Z,15.48
2022-12-23T00:05:38.778Z,15.20
2022-12-23T00:08:06.132Z,14.55
2022-12-23T00:10:33.622Z,12.38
2022-12-23T00:13:18.939Z,12.23
2022-12-23T00:15:45.741Z,12.55
2022-12-23T00:18:12.517Z,13.00
2022-12-23T00:20:39.285Z,15.27
2022-12-23T00:23:06.755Z,15.50
2022-12-23T00:25:41.219Z,14.10
2022-12-23T00:28:14.238Z,14.27
2022-12-23T00:31:01.113Z,16.10
2022-12-23T00:33:38.807Z,13.38
2022-12-23T00:36:32.180Z,14.65
2022-12-23T00:39:18.328Z,13.60
2022-12-23T00:42:04.155Z,13.27
2022-12-23T00:44:31.347Z,15.90
2022-12-23T00:46:58.241Z,15.80
2022-12-23T00:49:43.541Z,15.38
2022-12-23T00:52:13.355Z,17.40
2022-12-23T00:54:40.610Z,15.77
2022-12-23T00:57:07.426Z,14.55
2022-12-23T00:59:34.334Z,15.63
2022-12-23T01:02:19.810Z,14.57
2022-12-23T01:05:05.115Z,14.35
2022-12-23T01:07:31.983Z,13.55
2022-12-23T01:09:58.764Z,14.82
2022-12-23T01:12:26.019Z,14.73
2022-12-23T01:14:52.832Z,13.57
2022-12-23T01:17:19.661Z,14.63
2022-12-23T01:19:46.481Z,13.13
2022-12-23T01:22:13.414Z,14.88
2022-12-23T01:24:40.117Z,14.38
2022-12-23T01:27:06.873Z,12.88
2022-12-23T01:29:33.768Z,12.88
2022-12-23T01:32:00.581Z,12.38
2022-12-23T01:34:32.589Z,11.30
2022-12-23T01:37:03.160Z,11.50
2022-12-23T01:39:30.048Z,12.13
2022-12-23T01:42:15.243Z,11.38
2022-12-23T01:45:02.518Z,11.40
2022-12-23T01:47:40.685Z,11.20
2022-12-23T01:50:42.606Z,10.93
2022-12-23T01:53:17.842Z,10.50
2022-12-23T01:55:59.446Z,10.95
2022-12-23T02:01:16.351Z,9.23
2022-12-23T02:03:44.853Z,8.45
2022-12-23T02:06:32.599Z,7.68
2022-12-23T02:09:17.759Z,7.60
2022-12-23T02:12:06.210Z,7.18
2022-12-23T02:15:25.265Z,8.73
2022-12-23T02:18:10.543Z,8.05
2022-12-23T02:20:59.552Z,7.57
2022-12-23T02:23:47.499Z,7.32
2022-12-23T02:26:38.536Z,7.10
2022-12-23T02:29:24.083Z,7.05
2022-12-23T02:32:02.802Z,6.47
2022-12-23T02:34:57.427Z,6.75
2022-12-23T02:37:52.275Z,6.60
2022-12-23T02:40:31.061Z,7.20
2022-12-23T02:43:06.673Z,5.97
2022-12-23T02:45:42.190Z,6.43
2022-12-23T02:48:12.822Z,6.68
2022-12-23T02:50:43.309Z,6.60
2022-12-23T02:53:51.107Z,6.55
2022-12-23T02:56:20.315Z,6.55
2022-12-23T02:59:01.841Z,6.15
2022-12-23T03:03:58.235Z,7.15
2022-12-23T03:06:38.753Z,7.85
2022-12-23T03:09:05.914Z,6.55
2022-12-23T03:11:41.830Z,6.20
2022-12-23T03:14:36.462Z,7.32
2022-12-23T03:17:23.108Z,6.07
2022-12-23T03:20:14.163Z,6.65
2022-12-23T03:22:47.058Z,6.38
2022-12-23T03:25:24.301Z,6.20
2022-12-23T03:28:13.810Z,6.28
2022-12-23T03:30:45.478Z,6.25
2022-12-23T03:33:35.511Z,5.28
2022-12-23T03:36:16.038Z,6.63
2022-12-23T03:38:45.301Z,5.70
2022-12-23T03:41:18.432Z,5.47
2022-12-23T03:43:54.924Z,5.95
2022-12-23T03:46:37.190Z,6.13
2022-12-23T03:49:09.197Z,5.55
2022-12-23T03:51:49.128Z,5.80
2022-12-23T03:54:25.159Z,6.40
2022-12-23T03:57:01.603Z,6.38
2022-12-23T03:59:33.617Z,7.03
2022-12-23T04:02:04.090Z,7.03
2022-12-23T04:04:51.050Z,6.77
2022-12-23T04:07:32.336Z,7.93
2022-12-23T04:10:00.234Z,6.95
2022-12-23T04:12:28.373Z,7.05
2022-12-23T04:14:55.262Z,6.63
2022-12-23T04:17:22.698Z,7.07
2022-12-23T04:19:49.548Z,6.10
2022-12-23T04:22:16.641Z,6.10
2022-12-23T04:24:43.842Z,6.78
2022-12-23T04:27:13.939Z,6.88
2022-12-23T04:29:40.851Z,6.18
2022-12-23T04:32:08.073Z,6.15
2022-12-23T04:34:35.053Z,6.55
2022-12-23T04:37:02.032Z,5.63
2022-12-23T04:39:28.840Z,5.85
2022-12-23T04:41:55.620Z,6.05
2022-12-23T04:44:22.452Z,5.30
2022-12-23T04:46:49.381Z,5.63
2022-12-23T04:49:16.254Z,6.03
2022-12-23T04:51:43.004Z,7.00
2022-12-23T04:54:09.821Z,5.55
2022-12-23T04:56:36.631Z,5.32
2022-12-23T04:59:04.471Z,6.05
2022-12-23T05:01:31.551Z,5.88
2022-12-23T05:03:58.518Z,5.93
2022-12-23T05:06:25.334Z,5.00
2022-12-23T05:08:52.226Z,5.93
2022-12-23T05:11:19.074Z,5.78
2022-12-23T05:13:45.843Z,7.35
2022-12-23T05:16:13.323Z,6.35
2022-12-23T05:18:40.108Z,5.57
2022-12-23T05:21:06.888Z,5.93
2022-12-23T05:23:33.760Z,7.50
2022-12-23T05:26:00.602Z,6.70
2022-12-23T05:28:27.452Z,6.60
2022-12-23T05:31:01.745Z,6.40
2022-12-23T05:33:28.959Z,6.65
2022-12-23T05:35:56.052Z,5.82
2022-12-23T05:38:23.221Z,6.47
2022-12-23T05:40:50.158Z,7.93
2022-12-23T05:43:17.495Z,6.75
2022-12-23T05:45:44.811Z,5.80
2022-12-23T05:48:11.683Z,6.57
2022-12-23T05:50:39.430Z,5.13
2022-12-23T05:53:07.168Z,5.03
2022-12-23T05:55:34.924Z,4.30
2022-12-23T05:58:01.852Z,3.97
2022-12-23T06:00:29.379Z,4.07
2022-12-23T06:02:56.366Z,3.88
2022-12-23T06:05:23.380Z,3.38
2022-12-23T06:07:50.224Z,3.42
2022-12-23T06:10:17.012Z,3.50
2022-12-23T06:12:43.801Z,3.47
2022-12-23T06:15:11.150Z,3.25
2022-12-23T06:17:45.469Z,3.47
2022-12-23T06:20:19.931Z,3.67
2022-12-23T06:22:47.459Z,3.08
2022-12-23T06:25:14.366Z,3.20
2022-12-23T06:27:41.254Z,3.03
2022-12-23T06:30:08.632Z,3.10
2022-12-23T06:32:38.515Z,3.50
2022-12-23T06:35:06.795Z,2.80
2022-12-23T06:37:33.750Z,2.88
2022-12-23T06:40:00.532Z,2.70
2022-12-23T06:42:27.317Z,2.72
2022-12-23T06:44:54.091Z,2.70
2022-12-23T06:47:20.958Z,2.45
2022-12-23T06:49:47.740Z,2.17
2022-12-23T06:52:14.507Z,2.63
2022-12-23T06:54:41.284Z,2.83
2022-12-23T06:57:08.061Z,1.90
2022-12-23T06:59:34.838Z,2.30
2022-12-23T07:02:01.925Z,2.10
2022-12-23T07:04:28.776Z,2.30
2022-12-23T07:06:55.522Z,1.92
2022-12-23T07:09:22.418Z,2.45
2022-12-23T07:11:49.210Z,2.53
2022-12-23T07:14:15.958Z,2.28
2022-12-23T07:16:42.813Z,2.58
2022-12-23T07:19:09.637Z,3.42
2022-12-23T07:21:36.910Z,2.17
2022-12-23T07:24:03.934Z,2.47
2022-12-23T07:26:30.761Z,3.03
2022-12-23T07:28:57.650Z,2.92
2022-12-23T07:31:24.633Z,2.45
2022-12-23T07:33:51.428Z,2.33
2022-12-23T07:36:18.200Z,2.30
2022-12-23T07:38:45.107Z,2.88
2022-12-23T07:41:11.937Z,2.95
2022-12-23T07:43:38.753Z,2.88
2022-12-23T07:46:09.817Z,2.90
2022-12-23T07:48:36.789Z,2.88
2022-12-23T07:51:04.721Z,3.33
2022-12-23T07:53:31.588Z,3.03
2022-12-23T07:55:58.409Z,3.08
2022-12-23T07:58:25.418Z,1.73
2022-12-23T08:00:59.736Z,2.30
2022-12-23T08:03:26.599Z,1.20
2022-12-23T08:06:05.294Z,1.10
2022-12-23T08:08:32.864Z,1.08
2022-12-23T08:11:01.760Z,2.08
2022-12-23T08:13:28.990Z,1.02
2022-12-23T08:15:57.699Z,0.95
2022-12-23T08:18:27.391Z,0.90
2022-12-23T08:20:59.235Z,0.90
2022-12-23T08:23:27.275Z,0.73
2022-12-23T08:26:11.510Z,0.70
2022-12-23T08:28:39.695Z,0.60
2022-12-23T08:31:21.541Z,0.52
2022-12-23T08:33:52.087Z,0.50
2022-12-23T08:36:25.237Z,0.67
2022-12-23T08:38:54.719Z,0.70
2022-12-23T08:41:25.812Z,0.50
2022-12-23T08:43:53.309Z,0.57
2022-12-23T08:46:20.861Z,0.50
2022-12-23T08:48:49.830Z,0.40
2022-12-23T08:51:18.413Z,0.40
2022-12-23T08:53:45.818Z,0.52
2022-12-23T08:56:15.799Z,0.63
2022-12-23T08:58:45.694Z,0.73
2022-12-23T09:01:15.039Z,0.35
2022-12-23T09:03:43.111Z,0.80
2022-12-23T09:06:12.792Z,0.82
2022-12-23T09:08:40.647Z,0.70
2022-12-23T09:11:15.906Z,1.17
2022-12-23T09:13:43.739Z,1.02
2022-12-23T09:16:11.609Z,1.50
2022-12-23T09:18:38.574Z,1.00
2022-12-23T09:21:12.384Z,0.80
2022-12-23T09:23:39.201Z,1.10
2022-12-23T09:26:06.944Z,0.60
2022-12-23T09:28:34.111Z,0.60
2022-12-23T09:31:09.062Z,0.60
2022-12-23T09:33:36.292Z,0.50
2022-12-23T09:36:04.265Z,0.50
2022-12-23T09:38:31.430Z,0.70
2022-12-23T09:41:29.187Z,0.65
2022-12-23T09:44:24.013Z,0.50
2022-12-23T09:46:55.914Z,0.50
2022-12-23T09:49:24.157Z,0.85
2022-12-23T09:51:55.858Z,0.45
2022-12-23T09:54:26.015Z,0.70
2022-12-23T09:57:00.730Z,0.70
2022-12-23T09:59:30.411Z,0.70
2022-12-23T10:02:06.318Z,0.88
2022-12-23T10:04:55.382Z,0.75
2022-12-23T10:07:54.279Z,1.10
2022-12-23T10:10:42.586Z,1.25
2022-12-23T10:13:24.460Z,1.08
2022-12-23T10:15:53.109Z,1.40
2022-12-23T10:18:56.296Z,1.80
2022-12-23T10:21:26.819Z,1.63
2022-12-23T10:23:55.195Z,1.47
2022-12-23T10:26:29.026Z,1.58
2022-12-23T10:29:26.163Z,1.50
2022-12-23T10:32:23.301Z,2.08
2022-12-23T10:35:06.680Z,1.80
2022-12-23T10:37:36.130Z,1.85
2022-12-23T10:40:56.867Z,1.50
2022-12-23T10:43:38.123Z,3.10
2022-12-23T10:46:31.351Z,1.38
2022-12-23T10:49:17.152Z,0.90
2022-12-23T10:51:52.913Z,0.90
2022-12-23T10:54:42.616Z,0.88
2022-12-23T10:57:09.749Z,0.82
2022-12-23T10:59:37.031Z,0.90
2022-12-23T11:02:12.973Z,0.82
2022-12-23T11:04:48.317Z,1.13
2022-12-23T11:07:49.635Z,1.40
2022-12-23T11:10:19.528Z,1.27
2022-12-23T11:12:51.818Z,1.20
2022-12-23T11:15:34.641Z,1.23
2022-12-23T11:18:13.493Z,1.10
2022-12-23T11:20:43.336Z,1.10
2022-12-23T11:23:30.959Z,1.73
2022-12-23T11:26:10.030Z,1.10
2022-12-23T11:28:40.441Z,1.40
2022-12-23T11:31:14.495Z,1.50
2022-12-23T11:33:49.740Z,1.90
2022-12-23T11:36:24.088Z,1.85
2022-12-23T11:38:59.721Z,1.85
2022-12-23T11:41:29.510Z,2.17
2022-12-23T11:44:04.001Z,2.08
2022-12-23T11:46:33.647Z,1.67
2022-12-23T11:49:17.125Z,2.10
2022-12-23T11:51:47.537Z,1.75
2022-12-23T11:54:21.034Z,2.00
2022-12-23T11:56:52.897Z,1.70
2022-12-23T11:59:41.989Z,2.05
2022-12-23T12:02:26.706Z,2.13
2022-12-23T12:04:59.672Z,2.17
2022-12-23T12:07:27.275Z,1.85
2022-12-23T12:09:58.218Z,2.28
2022-12-23T12:12:26.488Z,1.95
2022-12-23T12:14:56.732Z,2.00
2022-12-23T12:17:41.149Z,2.47
2022-12-23T12:20:45.206Z,2.55
2022-12-23T12:23:30.652Z,3.17
2022-12-23T12:26:02.780Z,2.88
2022-12-23T12:28:37.200Z,2.80
2022-12-23T12:31:21.497Z,2.63
2022-12-23T12:33:54.900Z,2.20
2022-12-23T12:36:38.056Z,2.63
2022-12-23T12:39:05.326Z,3.03
2022-12-23T12:41:38.539Z,2.08
2022-12-23T12:44:32.258Z,2.50
2022-12-23T12:47:28.513Z,2.47
2022-12-23T12:50:33.970Z,2.53
2022-12-23T12:53:18.828Z,2.42
2022-12-23T12:55:52.498Z,3.20
2022-12-23T12:58:22.627Z,2.72
2022-12-23T13:01:04.311Z,2.92
2022-12-23T13:03:58.362Z,2.92
2022-12-23T13:06:38.622Z,3.20
2022-12-23T13:09:17.046Z,3.53
2022-12-23T13:11:54.211Z,3.85
2022-12-23T13:14:30.304Z,2.08
2022-12-23T13:17:21.091Z,2.72
2022-12-23T13:20:09.463Z,2.25
2022-12-23T13:22:38.679Z,2.20
2022-12-23T13:25:23.420Z,2.40
2022-12-23T13:27:57.940Z,2.20
2022-12-23T13:30:30.876Z,2.63
2022-12-23T13:33:15.564Z,2.50
2022-12-23T13:36:20.605Z,2.65
2022-12-23T13:39:02.433Z,3.25
2022-12-23T13:41:45.051Z,4.22
2022-12-23T13:44:15.210Z,3.58
2022-12-23T13:47:09.562Z,3.88
2022-12-23T13:49:58.049Z,3.17
2022-12-23T13:52:48.446Z,3.17
2022-12-23T13:55:47.902Z,3.95
2022-12-23T13:58:22.726Z,3.38
2022-12-23T14:01:12.690Z,3.97
2022-12-23T14:03:40.484Z,3.05
2022-12-23T14:06:25.727Z,4.55
2022-12-23T14:08:54.598Z,6.05
2022-12-23T14:11:26.295Z,3.42
2022-12-23T14:14:02.928Z,3.63
2022-12-23T14:16:41.643Z,3.60
2022-12-23T14:19:42.814Z,3.83
2022-12-23T14:22:18.545Z,3.15
2022-12-23T14:25:16.103Z,3.35
2022-12-23T14:27:57.756Z,3.10
2022-12-23T14:30:41.349Z,3.80
2022-12-23T14:33:31.369Z,3.35
2022-12-23T14:36:14.536Z,3.20
2022-12-23T14:38:41.584Z,3.05
2022-12-23T14:41:53.756Z,3.63
2022-12-23T14:44:35.709Z,3.63
2022-12-23T14:47:03.690Z,3.85
2022-12-23T14:49:40.454Z,4.47
2022-12-23T14:52:40.803Z,3.60
2022-12-23T14:55:31.623Z,3.63
2022-12-23T14:58:12.487Z,3.53
2022-12-23T15:00:47.157Z,3.85
2022-12-23T15:03:14.687Z,3.88
2022-12-23T15:05:42.963Z,3.78
2022-12-23T15:08:35.652Z,4.13
2022-12-23T15:11:03.095Z,4.10
2022-12-23T15:13:31.237Z,3.85
2022-12-23T15:16:01.666Z,4.60
2022-12-23T15:18:29.424Z,3.75
2022-12-23T15:21:00.346Z,4.10
2022-12-23T15:23:27.321Z,3.20
2022-12-23T15:25:58.882Z,3.70
2022-12-23T15:28:39.935Z,3.25
2022-12-23T15:31:13.358Z,3.90
2022-12-23T15:36:36.877Z,3.15
2022-12-23T15:39:10.340Z,3.30
2022-12-23T15:41:48.387Z,3.60
2022-12-23T15:44:22.180Z,3.85
2022-12-23T15:46:50.628Z,3.63
2022-12-23T15:49:19.760Z,3.90
2022-12-23T15:52:08.850Z,3.92
2022-12-23T15:54:52.393Z,3.70
2022-12-23T15:57:22.519Z,4.37
2022-12-23T15:59:49.826Z,4.80
2022-12-23T16:02:59.142Z,5.57
2022-12-23T16:05:09.449Z,6.25
2022-12-23T16:07:40.363Z,7.30
2022-12-23T16:10:21.070Z,6.95
2022-12-23T16:12:52.142Z,4.57
2022-12-23T16:15:28.505Z,5.40
2022-12-23T16:18:13.754Z,4.53
2022-12-23T16:20:45.707Z,4.75
2022-12-23T16:23:13.673Z,5.00
2022-12-23T16:25:50.160Z,5.68
2022-12-23T16:28:29.809Z,5.35
2022-12-23T16:30:58.628Z,5.90
2022-12-23T16:33:38.813Z,8.52
2022-12-23T16:36:37.910Z,8.45
2022-12-23T16:39:07.534Z,9.15
2022-12-23T16:41:35.353Z,8.27
2022-12-23T16:44:03.072Z,17.60
2022-12-23T16:46:36.342Z,10.23
2022-12-23T16:49:06.345Z,7.97
2022-12-23T16:51:34.396Z,9.88
2022-12-23T16:54:02.198Z,9.68
2022-12-23T16:56:35.519Z,7.95
2022-12-23T16:59:02.546Z,9.85
2022-12-23T17:01:32.340Z,8.50
2022-12-23T17:03:59.236Z,8.57
2022-12-23T17:06:26.744Z,11.48
2022-12-23T17:08:54.065Z,12.18
2022-12-23T17:11:25.616Z,14.27
2022-12-23T17:13:56.647Z,11.70
2022-12-23T17:16:28.431Z,13.52
2022-12-23T17:18:55.314Z,13.50
2022-12-23T17:21:25.539Z,12.10
2022-12-23T17:24:02.876Z,10.80
2022-12-23T17:26:29.700Z,11.32
2022-12-23T17:28:56.579Z,8.32
2022-12-23T17:31:26.974Z,7.10
2022-12-23T17:33:54.635Z,5.72
2022-12-23T17:36:22.149Z,5.05
2022-12-23T17:38:49.111Z,5.40
2022-12-23T17:41:29.444Z,5.72
2022-12-23T17:43:57.120Z,6.25
2022-12-23T17:46:24.544Z,5.60
2022-12-23T17:48:51.523Z,5.20
2022-12-23T17:51:21.108Z,2.70
2022-12-23T17:53:55.131Z,4.05
2022-12-23T17:56:26.670Z,6.50
2022-12-23T17:58:53.499Z,3.40
2022-12-23T18:01:32.350Z,4.90
2022-12-23T18:04:00.402Z,5.45
2022-12-23T18:06:28.912Z,10.32
2022-12-23T18:08:59.119Z,4.03
2022-12-23T18:11:44.202Z,3.55
2022-12-23T18:14:23.158Z,3.13
2022-12-23T18:16:50.084Z,3.40
2022-12-23T18:19:19.703Z,3.30
2022-12-23T18:21:47.377Z,3.33
2022-12-23T18:24:14.229Z,2.97
2022-12-23T18:26:41.079Z,2.92
2022-12-23T18:29:08.141Z,2.22
2022-12-23T18:31:37.091Z,2.10
2022-12-23T18:34:04.759Z,2.00
2022-12-23T18:36:34.051Z,2.17
2022-12-23T18:39:01.003Z,2.15
2022-12-23T18:41:28.317Z,1.77
2022-12-23T18:43:55.578Z,2.22
2022-12-23T18:46:22.632Z,2.17
2022-12-23T18:48:49.678Z,2.58
2022-12-23T18:51:18.644Z,3.40
2022-12-23T18:53:47.027Z,2.30
2022-12-23T18:56:15.239Z,2.40
2022-12-23T18:58:42.483Z,2.60
2022-12-23T19:01:14.125Z,2.42
2022-12-23T19:03:41.521Z,2.60
2022-12-23T19:06:11.905Z,2.08
2022-12-23T19:08:39.679Z,2.58
2022-12-23T19:11:17.333Z,2.38
2022-12-23T19:13:45.234Z,2.58
2022-12-23T19:16:17.660Z,2.22
2022-12-23T19:18:45.782Z,2.70
2022-12-23T19:21:12.884Z,4.85
2022-12-23T19:23:41.267Z,2.70
2022-12-23T19:26:14.375Z,1.55
2022-12-23T19:28:42.113Z,1.92
2022-12-23T19:31:11.278Z,2.45
2022-12-23T19:33:39.278Z,2.45
2022-12-23T19:36:14.389Z,2.50
2022-12-23T19:38:41.539Z,2.55
2022-12-23T19:41:09.273Z,2.40
2022-12-23T19:43:38.353Z,2.15
2022-12-23T19:46:08.366Z,2.47
2022-12-23T19:48:36.329Z,2.03
2022-12-23T19:51:04.779Z,2.85
2022-12-23T19:53:32.425Z,2.40
2022-12-23T19:56:05.751Z,3.20
2022-12-23T19:58:35.654Z,2.33
2022-12-23T20:01:10.040Z,1.98
2022-12-23T20:03:38.011Z,2.60
2022-12-23T20:06:06.249Z,1.88
2022-12-23T20:08:34.783Z,1.98
2022-12-23T20:11:06.643Z,2.03
2022-12-23T20:13:34.264Z,3.92
2022-12-23T20:16:01.333Z,2.30
2022-12-23T20:18:28.741Z,2.75
2022-12-23T20:20:55.630Z,3.80
2022-12-23T20:23:22.757Z,4.70
2022-12-23T20:25:49.878Z,5.70
2022-12-23T20:28:17.036Z,4.68
2022-12-23T20:30:43.976Z,3.38
2022-12-23T20:33:10.788Z,3.28
2022-12-23T20:35:37.808Z,2.72
2022-12-23T20:38:04.559Z,2.42
2022-12-23T20:40:31.364Z,2.15
2022-12-23T20:43:01.216Z,4.10
2022-12-23T20:45:28.028Z,2.92
2022-12-23T20:47:54.800Z,3.17
2022-12-23T20:50:21.637Z,2.28
2022-12-23T20:52:48.482Z,2.25
2022-12-23T20:55:15.279Z,2.97
2022-12-23T20:57:45.164Z,3.10
2022-12-23T21:00:13.048Z,3.25
2022-12-23T21:02:40.882Z,2.67
2022-12-23T21:05:08.190Z,2.25
2022-12-23T21:07:35.000Z,2.65
2022-12-23T21:10:01.882Z,2.10
2022-12-23T21:12:28.684Z,2.15
2022-12-23T21:14:55.475Z,2.15
2022-12-23T21:17:23.925Z,2.15
2022-12-23T21:19:50.759Z,2.67
2022-12-23T21:22:17.507Z,2.10
2022-12-23T21:24:44.447Z,2.80
2022-12-23T21:27:11.347Z,2.55
2022-12-23T21:29:38.112Z,1.90
2022-12-23T21:32:04.912Z,1.95
2022-12-23T21:34:31.739Z,3.58
2022-12-23T21:36:58.577Z,3.03
2022-12-23T21:39:26.048Z,2.63
2022-12-23T21:41:53.271Z,2.35
2022-12-23T21:44:20.024Z,3.53
2022-12-23T21:46:46.888Z,2.42
2022-12-23T21:49:13.750Z,3.22
2022-12-23T21:51:41.715Z,3.17
2022-12-23T21:54:12.145Z,2.83
2022-12-23T21:56:40.752Z,2.28
2022-12-23T21:59:16.252Z,1.50
2022-12-23T22:01:43.758Z,1.75
2022-12-23T22:04:11.376Z,2.13
2022-12-23T22:06:43.770Z,1.75
2022-12-23T22:09:15.934Z,2.15
2022-12-23T22:11:43.564Z,2.63
2022-12-23T22:14:13.445Z,2.95
2022-12-23T22:16:40.516Z,2.13
2022-12-23T22:19:09.457Z,3.50
2022-12-23T22:21:36.684Z,2.58
2022-12-23T22:24:04.058Z,2.45
2022-12-23T22:26:32.740Z,2.25
2022-12-23T22:29:01.822Z,2.13
2022-12-23T22:31:31.361Z,4.03
2022-12-23T22:33:58.885Z,4.60
2022-12-23T22:36:26.064Z,4.68
2022-12-23T22:38:55.538Z,4.75
2022-12-23T22:41:23.675Z,2.80
2022-12-23T22:43:50.455Z,2.13
2022-12-23T22:46:18.761Z,2.17
2022-12-23T22:48:46.602Z,2.53
2022-12-23T22:51:22.418Z,2.78
2022-12-23T22:53:49.228Z,2.38
2022-12-23T22:56:18.587Z,3.05
2022-12-23T22:58:45.666Z,3.15
2022-12-23T23:01:25.839Z,3.05
2022-12-23T23:03:57.634Z,4.55
2022-12-23T23:06:32.917Z,5.05
2022-12-23T23:09:00.349Z,4.10
2022-12-23T23:11:28.081Z,5.32
2022-12-23T23:13:55.741Z,5.50
2022-12-23T23:16:23.362Z,3.15
2022-12-23T23:18:50.987Z,5.18
2022-12-23T23:21:17.868Z,5.55
2022-12-23T23:23:45.485Z,4.93
2022-12-23T23:26:13.212Z,4.00
2022-12-23T23:28:40.760Z,3.92
2022-12-23T23:33:55.646Z,2.92
2022-12-23T23:36:22.545Z,2.85
2022-12-23T23:38:49.401Z,2.63
2022-12-23T23:41:20.671Z,3.00
2022-12-23T23:43:49.587Z,2.30
2022-12-23T23:46:16.492Z,4.15
2022-12-23T23:48:43.301Z,4.72
2022-12-23T23:51:10.225Z,2.80
2022-12-23T23:53:36.988Z,4.90
2022-12-23T23:56:06.403Z,2.58
2022-12-23T23:58:35.161Z,3.53
